sensor_id;sensor_type;location;lat;lon;timestamp;P1;durP1;ratioP1;P2;durP2;ratioP2
84084;SDS011;74175;41.730;44.734;2023-12-20T00:01:56;9.55;;;3.20;;
84084;SDS011;74175;41.730;44.734;2023-12-20T00:04:22;8.68;;;3.25;;
84084;SDS011;74175;41.730;44.734;2023-12-20T00:06:48;16.85;;;5.43;;
84084;SDS011;74175;41.730;44.734;2023-12-20T00:09:14;10.18;;;3.78;;
84084;SDS011;74175;41.730;44.734;2023-12-20T00:11:41;12.67;;;4.13;;
84084;SDS011;74175;41.730;44.734;2023-12-20T00:14:07;11.23;;;3.88;;
84084;SDS011;74175;41.730;44.734;2023-12-20T00:16:33;11.77;;;4.03;;
84084;SDS011;74175;41.730;44.734;2023-12-20T00:19:00;9.63;;;3.72;;
84084;SDS011;74175;41.730;44.734;2023-12-20T00:21:26;10.93;;;4.28;;
84084;SDS011;74175;41.730;44.734;2023-12-20T00:23:55;10.20;;;3.88;;
84084;SDS011;74175;41.730;44.734;2023-12-20T00:26:21;8.77;;;3.40;;
84084;SDS011;74175;41.730;44.734;2023-12-20T00:38:45;8.25;;;2.92;;
84084;SDS011;74175;41.730;44.734;2023-12-20T00:41:13;8.95;;;3.50;;
84084;SDS011;74175;41.730;44.734;2023-12-20T00:43:39;11.13;;;4.17;;
84084;SDS011;74175;41.730;44.734;2023-12-20T00:46:09;10.02;;;3.65;;
84084;SDS011;74175;41.730;44.734;2023-12-20T00:48:35;9.50;;;3.35;;
84084;SDS011;74175;41.730;44.734;2023-12-20T00:51:01;9.95;;;4.05;;
84084;SDS011;74175;41.730;44.734;2023-12-20T00:53:28;11.00;;;4.40;;
84084;SDS011;74175;41.730;44.734;2023-12-20T00:55:54;10.60;;;4.50;;
84084;SDS011;74175;41.730;44.734;2023-12-20T00:58:20;9.68;;;3.35;;
84084;SDS011;74175;41.730;44.734;2023-12-20T01:00:46;8.27;;;2.90;;
84084;SDS011;74175;41.730;44.734;2023-12-20T01:03:12;8.85;;;2.72;;
84084;SDS011;74175;41.730;44.734;2023-12-20T01:05:39;8.00;;;3.35;;
84084;SDS011;74175;41.730;44.734;2023-12-20T01:08:07;8.45;;;3.03;;
84084;SDS011;74175;41.730;44.734;2023-12-20T01:10:33;8.13;;;2.90;;
84084;SDS011;74175;41.730;44.734;2023-12-20T01:13:03;7.97;;;3.15;;
84084;SDS011;74175;41.730;44.734;2023-12-20T01:15:30;6.68;;;2.55;;
84084;SDS011;74175;41.730;44.734;2023-12-20T01:17:56;7.20;;;2.72;;
84084;SDS011;74175;41.730;44.734;2023-12-20T01:20:24;10.52;;;3.42;;
84084;SDS011;74175;41.730;44.734;2023-12-20T01:22:51;8.50;;;3.13;;
84084;SDS011;74175;41.730;44.734;2023-12-20T01:25:17;7.90;;;2.80;;
84084;SDS011;74175;41.730;44.734;2023-12-20T01:27:43;8.68;;;2.83;;
84084;SDS011;74175;41.730;44.734;2023-12-20T01:30:09;8.45;;;3.50;;
84084;SDS011;74175;41.730;44.734;2023-12-20T01:32:35;9.57;;;3.28;;
84084;SDS011;74175;41.730;44.734;2023-12-20T01:35:01;7.45;;;3.20;;
84084;SDS011;74175;41.730;44.734;2023-12-20T01:37:28;8.38;;;3.15;;
84084;SDS011;74175;41.730;44.734;2023-12-20T01:39:54;6.40;;;2.40;;
84084;SDS011;74175;41.730;44.734;2023-12-20T01:42:20;8.23;;;3.22;;
84084;SDS011;74175;41.730;44.734;2023-12-20T01:44:47;8.77;;;3.58;;
84084;SDS011;74175;41.730;44.734;2023-12-20T01:47:13;7.60;;;2.95;;
84084;SDS011;74175;41.730;44.734;2023-12-20T01:49:40;7.50;;;2.38;;
84084;SDS011;74175;41.730;44.734;2023-12-20T01:52:06;7.20;;;2.63;;
84084;SDS011;74175;41.730;44.734;2023-12-20T01:54:33;7.88;;;2.80;;
84084;SDS011;74175;41.730;44.734;2023-12-20T01:57:01;10.05;;;3.00;;
84084;SDS011;74175;41.730;44.734;2023-12-20T01:59:27;6.63;;;2.38;;
84084;SDS011;74175;41.730;44.734;2023-12-20T02:01:54;7.70;;;2.35;;
84084;SDS011;74175;41.730;44.734;2023-12-20T02:04:20;8.13;;;3.10;;
84084;SDS011;74175;41.730;44.734;2023-12-20T02:06:47;6.80;;;2.40;;
84084;SDS011;74175;41.730;44.734;2023-12-20T02:09:14;7.20;;;2.57;;
84084;SDS011;74175;41.730;44.734;2023-12-20T02:11:41;7.47;;;2.75;;
84084;SDS011;74175;41.730;44.734;2023-12-20T02:14:07;6.72;;;2.42;;
84084;SDS011;74175;41.730;44.734;2023-12-20T02:16:33;7.55;;;2.75;;
84084;SDS011;74175;41.730;44.734;2023-12-20T02:18:59;6.93;;;2.30;;
84084;SDS011;74175;41.730;44.734;2023-12-20T02:21:31;7.07;;;2.63;;
84084;SDS011;74175;41.730;44.734;2023-12-20T02:23:58;9.53;;;3.30;;
84084;SDS011;74175;41.730;44.734;2023-12-20T02:26:25;9.38;;;3.25;;
84084;SDS011;74175;41.730;44.734;2023-12-20T02:28:51;7.53;;;2.53;;
84084;SDS011;74175;41.730;44.734;2023-12-20T02:31:20;8.07;;;3.22;;
84084;SDS011;74175;41.730;44.734;2023-12-20T02:33:47;10.10;;;3.95;;
84084;SDS011;74175;41.730;44.734;2023-12-20T02:36:15;7.28;;;2.92;;
84084;SDS011;74175;41.730;44.734;2023-12-20T02:38:41;7.70;;;2.93;;
84084;SDS011;74175;41.730;44.734;2023-12-20T02:41:11;10.85;;;3.40;;
84084;SDS011;74175;41.730;44.734;2023-12-20T02:43:37;7.20;;;2.63;;
84084;SDS011;74175;41.730;44.734;2023-12-20T02:46:03;7.60;;;2.45;;
84084;SDS011;74175;41.730;44.734;2023-12-20T02:48:30;7.93;;;2.17;;
84084;SDS011;74175;41.730;44.734;2023-12-20T02:50:56;7.28;;;2.85;;
84084;SDS011;74175;41.730;44.734;2023-12-20T02:53:22;6.80;;;2.57;;
84084;SDS011;74175;41.730;44.734;2023-12-20T02:55:48;8.38;;;2.67;;
84084;SDS011;74175;41.730;44.734;2023-12-20T02:58:14;6.88;;;2.10;;
84084;SDS011;74175;41.730;44.734;2023-12-20T03:00:40;7.57;;;2.60;;
84084;SDS011;74175;41.730;44.734;2023-12-20T03:03:06;6.80;;;2.30;;
84084;SDS011;74175;41.730;44.734;2023-12-20T03:05:32;9.40;;;2.90;;
84084;SDS011;74175;41.730;44.734;2023-12-20T03:08:01;8.38;;;3.05;;
84084;SDS011;74175;41.730;44.734;2023-12-20T03:10:28;10.00;;;3.65;;
84084;SDS011;74175;41.730;44.734;2023-12-20T03:12:54;9.15;;;2.90;;
84084;SDS011;74175;41.730;44.734;2023-12-20T03:15:20;8.35;;;3.53;;
84084;SDS011;74175;41.730;44.734;2023-12-20T03:17:46;8.98;;;3.28;;
84084;SDS011;74175;41.730;44.734;2023-12-20T03:20:12;8.47;;;2.97;;
84084;SDS011;74175;41.730;44.734;2023-12-20T03:22:38;8.82;;;2.92;;
84084;SDS011;74175;41.730;44.734;2023-12-20T03:25:04;9.30;;;3.15;;
84084;SDS011;74175;41.730;44.734;2023-12-20T03:27:30;10.60;;;4.10;;
84084;SDS011;74175;41.730;44.734;2023-12-20T03:29:56;9.35;;;3.40;;
84084;SDS011;74175;41.730;44.734;2023-12-20T03:32:22;9.33;;;3.17;;
84084;SDS011;74175;41.730;44.734;2023-12-20T03:34:48;10.60;;;3.40;;
84084;SDS011;74175;41.730;44.734;2023-12-20T03:37:14;10.05;;;3.70;;
84084;SDS011;74175;41.730;44.734;2023-12-20T03:39:40;8.90;;;3.38;;
84084;SDS011;74175;41.730;44.734;2023-12-20T03:42:09;10.00;;;3.50;;
84084;SDS011;74175;41.730;44.734;2023-12-20T03:44:38;9.10;;;3.28;;
84084;SDS011;74175;41.730;44.734;2023-12-20T03:47:04;9.38;;;3.70;;
84084;SDS011;74175;41.730;44.734;2023-12-20T03:49:31;8.73;;;3.63;;
84084;SDS011;74175;41.730;44.734;2023-12-20T03:51:57;8.40;;;3.22;;
84084;SDS011;74175;41.730;44.734;2023-12-20T03:54:23;10.13;;;3.72;;
84084;SDS011;74175;41.730;44.734;2023-12-20T03:56:49;11.77;;;4.18;;
84084;SDS011;74175;41.730;44.734;2023-12-20T03:59:17;10.20;;;3.38;;
84084;SDS011;74175;41.730;44.734;2023-12-20T04:01:43;10.43;;;4.23;;
84084;SDS011;74175;41.730;44.734;2023-12-20T04:04:13;10.88;;;4.45;;
84084;SDS011;74175;41.730;44.734;2023-12-20T04:06:39;9.20;;;3.58;;
84084;SDS011;74175;41.730;44.734;2023-12-20T04:09:05;9.70;;;3.20;;
84084;SDS011;74175;41.730;44.734;2023-12-20T04:11:31;8.45;;;3.58;;
84084;SDS011;74175;41.730;44.734;2023-12-20T04:13:57;10.03;;;3.67;;
84084;SDS011;74175;41.730;44.734;2023-12-20T04:16:23;7.63;;;2.33;;
84084;SDS011;74175;41.730;44.734;2023-12-20T04:18:49;7.53;;;3.23;;
84084;SDS011;74175;41.730;44.734;2023-12-20T04:21:16;8.32;;;3.33;;
84084;SDS011;74175;41.730;44.734;2023-12-20T04:23:44;9.98;;;2.70;;
84084;SDS011;74175;41.730;44.734;2023-12-20T04:26:10;10.15;;;2.95;;
84084;SDS011;74175;41.730;44.734;2023-12-20T04:28:36;12.70;;;3.45;;
84084;SDS011;74175;41.730;44.734;2023-12-20T04:31:03;8.63;;;2.73;;
84084;SDS011;74175;41.730;44.734;2023-12-20T04:33:29;10.57;;;3.40;;
84084;SDS011;74175;41.730;44.734;2023-12-20T04:35:55;11.37;;;3.30;;
84084;SDS011;74175;41.730;44.734;2023-12-20T04:38:21;9.37;;;2.87;;
84084;SDS011;74175;41.730;44.734;2023-12-20T04:40:47;13.35;;;4.68;;
84084;SDS011;74175;41.730;44.734;2023-12-20T04:43:13;12.27;;;3.63;;
84084;SDS011;74175;41.730;44.734;2023-12-20T04:45:39;10.98;;;3.65;;
84084;SDS011;74175;41.730;44.734;2023-12-20T04:48:07;11.95;;;4.35;;
84084;SDS011;74175;41.730;44.734;2023-12-20T04:50:33;13.10;;;3.30;;
84084;SDS011;74175;41.730;44.734;2023-12-20T04:52:59;9.40;;;3.60;;
84084;SDS011;74175;41.730;44.734;2023-12-20T04:55:25;9.77;;;3.47;;
84084;SDS011;74175;41.730;44.734;2023-12-20T04:57:52;10.43;;;3.38;;
84084;SDS011;74175;41.730;44.734;2023-12-20T05:00:18;8.07;;;3.08;;
84084;SDS011;74175;41.730;44.734;2023-12-20T05:02:44;10.10;;;3.38;;
84084;SDS011;74175;41.730;44.734;2023-12-20T05:05:11;7.90;;;3.03;;
84084;SDS011;74175;41.730;44.734;2023-12-20T05:07:38;12.38;;;3.88;;
84084;SDS011;74175;41.730;44.734;2023-12-20T05:10:04;10.93;;;4.60;;
84084;SDS011;74175;41.730;44.734;2023-12-20T05:12:31;13.25;;;4.57;;
84084;SDS011;74175;41.730;44.734;2023-12-20T05:14:57;11.13;;;4.18;;
84084;SDS011;74175;41.730;44.734;2023-12-20T05:17:24;12.25;;;4.00;;
84084;SDS011;74175;41.730;44.734;2023-12-20T05:19:50;11.18;;;4.53;;
84084;SDS011;74175;41.730;44.734;2023-12-20T05:22:16;9.80;;;3.77;;
84084;SDS011;74175;41.730;44.734;2023-12-20T05:24:42;9.52;;;3.47;;
84084;SDS011;74175;41.730;44.734;2023-12-20T05:27:09;11.68;;;3.40;;
84084;SDS011;74175;41.730;44.734;2023-12-20T05:29:34;9.93;;;3.60;;
84084;SDS011;74175;41.730;44.734;2023-12-20T05:32:01;10.95;;;3.40;;
84084;SDS011;74175;41.730;44.734;2023-12-20T05:34:27;12.67;;;4.53;;
84084;SDS011;74175;41.730;44.734;2023-12-20T05:36:53;10.57;;;3.57;;
84084;SDS011;74175;41.730;44.734;2023-12-20T05:39:19;12.23;;;4.63;;
84084;SDS011;74175;41.730;44.734;2023-12-20T05:41:45;12.45;;;4.57;;
84084;SDS011;74175;41.730;44.734;2023-12-20T05:44:11;8.52;;;3.10;;
84084;SDS011;74175;41.730;44.734;2023-12-20T05:46:37;9.70;;;3.33;;
84084;SDS011;74175;41.730;44.734;2023-12-20T05:49:03;8.67;;;3.20;;
84084;SDS011;74175;41.730;44.734;2023-12-20T05:51:29;7.72;;;2.58;;
84084;SDS011;74175;41.730;44.734;2023-12-20T05:53:55;9.45;;;3.10;;
84084;SDS011;74175;41.730;44.734;2023-12-20T05:56:21;13.18;;;4.32;;
84084;SDS011;74175;41.730;44.734;2023-12-20T05:58:47;8.63;;;3.42;;
84084;SDS011;74175;41.730;44.734;2023-12-20T06:01:16;11.70;;;3.80;;
84084;SDS011;74175;41.730;44.734;2023-12-20T06:03:43;7.75;;;2.92;;
84084;SDS011;74175;41.730;44.734;2023-12-20T06:06:09;11.52;;;4.40;;
84084;SDS011;74175;41.730;44.734;2023-12-20T06:08:35;8.88;;;3.22;;
84084;SDS011;74175;41.730;44.734;2023-12-20T06:11:01;9.27;;;2.90;;
84084;SDS011;74175;41.730;44.734;2023-12-20T06:13:28;10.45;;;3.90;;
84084;SDS011;74175;41.730;44.734;2023-12-20T06:15:54;9.50;;;3.40;;
84084;SDS011;74175;41.730;44.734;2023-12-20T06:18:21;8.40;;;2.78;;
84084;SDS011;74175;41.730;44.734;2023-12-20T06:20:47;7.60;;;2.83;;
84084;SDS011;74175;41.730;44.734;2023-12-20T06:23:13;11.15;;;2.97;;
84084;SDS011;74175;41.730;44.734;2023-12-20T06:25:39;14.85;;;3.30;;
84084;SDS011;74175;41.730;44.734;2023-12-20T06:28:05;8.60;;;3.20;;
84084;SDS011;74175;41.730;44.734;2023-12-20T06:30:32;12.30;;;3.87;;
84084;SDS011;74175;41.730;44.734;2023-12-20T06:32:59;9.70;;;3.78;;
84084;SDS011;74175;41.730;44.734;2023-12-20T06:35:26;10.77;;;3.22;;
84084;SDS011;74175;41.730;44.734;2023-12-20T06:37:52;12.02;;;4.82;;
84084;SDS011;74175;41.730;44.734;2023-12-20T06:40:18;11.50;;;4.05;;
84084;SDS011;74175;41.730;44.734;2023-12-20T06:42:44;14.80;;;5.20;;
84084;SDS011;74175;41.730;44.734;2023-12-20T06:45:10;14.00;;;4.78;;
84084;SDS011;74175;41.730;44.734;2023-12-20T06:47:36;13.60;;;5.00;;
84084;SDS011;74175;41.730;44.734;2023-12-20T06:50:02;17.10;;;5.43;;
84084;SDS011;74175;41.730;44.734;2023-12-20T06:52:29;10.32;;;3.63;;
84084;SDS011;74175;41.730;44.734;2023-12-20T06:54:56;13.33;;;4.77;;
84084;SDS011;74175;41.730;44.734;2023-12-20T06:57:22;10.15;;;3.55;;
84084;SDS011;74175;41.730;44.734;2023-12-20T06:59:49;14.45;;;5.05;;
84084;SDS011;74175;41.730;44.734;2023-12-20T07:02:15;9.65;;;4.65;;
84084;SDS011;74175;41.730;44.734;2023-12-20T07:04:41;14.18;;;5.18;;
84084;SDS011;74175;41.730;44.734;2023-12-20T07:07:07;13.50;;;4.93;;
84084;SDS011;74175;41.730;44.734;2023-12-20T07:09:33;13.37;;;5.00;;
84084;SDS011;74175;41.730;44.734;2023-12-20T07:11:59;14.23;;;6.50;;
84084;SDS011;74175;41.730;44.734;2023-12-20T07:14:25;13.90;;;6.22;;
84084;SDS011;74175;41.730;44.734;2023-12-20T07:16:54;22.02;;;7.80;;
84084;SDS011;74175;41.730;44.734;2023-12-20T07:19:20;18.73;;;8.13;;
84084;SDS011;74175;41.730;44.734;2023-12-20T07:21:47;15.60;;;6.20;;
84084;SDS011;74175;41.730;44.734;2023-12-20T07:24:13;16.43;;;7.60;;
84084;SDS011;74175;41.730;44.734;2023-12-20T07:26:39;20.40;;;7.82;;
84084;SDS011;74175;41.730;44.734;2023-12-20T07:29:08;22.88;;;9.07;;
84084;SDS011;74175;41.730;44.734;2023-12-20T07:31:35;17.95;;;6.78;;
84084;SDS011;74175;41.730;44.734;2023-12-20T07:34:01;16.40;;;6.95;;
84084;SDS011;74175;41.730;44.734;2023-12-20T07:36:27;17.85;;;7.13;;
84084;SDS011;74175;41.730;44.734;2023-12-20T07:38:55;13.13;;;5.37;;
84084;SDS011;74175;41.730;44.734;2023-12-20T07:41:21;14.57;;;6.10;;
84084;SDS011;74175;41.730;44.734;2023-12-20T07:43:49;15.52;;;5.60;;
84084;SDS011;74175;41.730;44.734;2023-12-20T07:46:17;14.70;;;6.47;;
84084;SDS011;74175;41.730;44.734;2023-12-20T07:48:48;14.93;;;5.75;;
84084;SDS011;74175;41.730;44.734;2023-12-20T07:51:16;13.85;;;6.93;;
84084;SDS011;74175;41.730;44.734;2023-12-20T07:53:42;13.63;;;6.07;;
84084;SDS011;74175;41.730;44.734;2023-12-20T07:56:18;11.00;;;4.88;;
84084;SDS011;74175;41.730;44.734;2023-12-20T07:58:46;10.60;;;4.85;;
84084;SDS011;74175;41.730;44.734;2023-12-20T08:01:15;14.88;;;7.35;;
84084;SDS011;74175;41.730;44.734;2023-12-20T08:03:41;14.20;;;6.18;;
84084;SDS011;74175;41.730;44.734;2023-12-20T08:06:08;17.65;;;7.13;;
84084;SDS011;74175;41.730;44.734;2023-12-20T08:08:34;16.43;;;7.00;;
84084;SDS011;74175;41.730;44.734;2023-12-20T08:11:03;13.50;;;6.13;;
84084;SDS011;74175;41.730;44.734;2023-12-20T08:13:29;19.65;;;8.10;;
84084;SDS011;74175;41.730;44.734;2023-12-20T08:15:55;17.92;;;7.60;;
84084;SDS011;74175;41.730;44.734;2023-12-20T08:18:21;15.88;;;7.35;;
84084;SDS011;74175;41.730;44.734;2023-12-20T08:20:50;16.70;;;7.32;;
84084;SDS011;74175;41.730;44.734;2023-12-20T08:23:19;16.58;;;8.00;;
84084;SDS011;74175;41.730;44.734;2023-12-20T08:25:48;13.50;;;7.53;;
84084;SDS011;74175;41.730;44.734;2023-12-20T08:28:15;15.60;;;7.97;;
84084;SDS011;74175;41.730;44.734;2023-12-20T08:30:41;20.02;;;7.70;;
84084;SDS011;74175;41.730;44.734;2023-12-20T08:33:07;30.17;;;12.13;;
84084;SDS011;74175;41.730;44.734;2023-12-20T08:35:38;23.08;;;9.70;;
84084;SDS011;74175;41.730;44.734;2023-12-20T08:38:05;18.85;;;8.55;;
84084;SDS011;74175;41.730;44.734;2023-12-20T08:40:32;17.43;;;7.83;;
84084;SDS011;74175;41.730;44.734;2023-12-20T08:42:58;16.07;;;7.07;;
84084;SDS011;74175;41.730;44.734;2023-12-20T08:45:24;17.83;;;8.45;;
84084;SDS011;74175;41.730;44.734;2023-12-20T08:47:50;18.15;;;8.35;;
84084;SDS011;74175;41.730;44.734;2023-12-20T08:50:17;13.30;;;7.05;;
84084;SDS011;74175;41.730;44.734;2023-12-20T08:52:43;20.65;;;8.45;;
84084;SDS011;74175;41.730;44.734;2023-12-20T08:55:09;22.03;;;8.87;;
84084;SDS011;74175;41.730;44.734;2023-12-20T08:57:36;18.47;;;9.13;;
84084;SDS011;74175;41.730;44.734;2023-12-20T09:00:02;20.55;;;9.40;;
84084;SDS011;74175;41.730;44.734;2023-12-20T09:02:30;17.95;;;8.48;;
84084;SDS011;74175;41.730;44.734;2023-12-20T09:04:56;18.40;;;8.30;;
84084;SDS011;74175;41.730;44.734;2023-12-20T09:07:23;19.48;;;9.02;;
84084;SDS011;74175;41.730;44.734;2023-12-20T09:09:50;19.53;;;8.90;;
84084;SDS011;74175;41.730;44.734;2023-12-20T09:12:17;16.87;;;7.50;;
84084;SDS011;74175;41.730;44.734;2023-12-20T09:14:45;13.70;;;6.68;;
84084;SDS011;74175;41.730;44.734;2023-12-20T09:17:12;10.93;;;4.68;;
84084;SDS011;74175;41.730;44.734;2023-12-20T09:19:38;18.15;;;8.15;;
84084;SDS011;74175;41.730;44.734;2023-12-20T09:22:05;15.23;;;8.35;;
84084;SDS011;74175;41.730;44.734;2023-12-20T09:24:31;14.80;;;7.95;;
84084;SDS011;74175;41.730;44.734;2023-12-20T09:26:57;16.52;;;6.30;;
84084;SDS011;74175;41.730;44.734;2023-12-20T09:29:23;14.80;;;6.73;;
84084;SDS011;74175;41.730;44.734;2023-12-20T09:31:50;13.18;;;5.68;;
84084;SDS011;74175;41.730;44.734;2023-12-20T09:34:16;14.02;;;6.50;;
84084;SDS011;74175;41.730;44.734;2023-12-20T09:36:45;12.38;;;5.25;;
84084;SDS011;74175;41.730;44.734;2023-12-20T09:39:16;12.32;;;5.20;;
84084;SDS011;74175;41.730;44.734;2023-12-20T09:42:11;15.18;;;6.43;;
84084;SDS011;74175;41.730;44.734;2023-12-20T09:44:38;12.73;;;7.53;;
84084;SDS011;74175;41.730;44.734;2023-12-20T09:47:07;11.60;;;5.80;;
84084;SDS011;74175;41.730;44.734;2023-12-20T09:49:34;13.70;;;7.03;;
84084;SDS011;74175;41.730;44.734;2023-12-20T09:52:01;12.75;;;5.95;;
84084;SDS011;74175;41.730;44.734;2023-12-20T09:54:28;12.00;;;5.68;;
84084;SDS011;74175;41.730;44.734;2023-12-20T09:56:54;11.93;;;5.78;;
84084;SDS011;74175;41.730;44.734;2023-12-20T09:59:20;16.75;;;6.78;;
84084;SDS011;74175;41.730;44.734;2023-12-20T10:01:47;11.00;;;6.00;;
84084;SDS011;74175;41.730;44.734;2023-12-20T10:04:14;12.13;;;6.03;;
84084;SDS011;74175;41.730;44.734;2023-12-20T10:06:41;13.48;;;5.82;;
84084;SDS011;74175;41.730;44.734;2023-12-20T10:09:09;14.75;;;7.95;;
84084;SDS011;74175;41.730;44.734;2023-12-20T10:11:37;11.80;;;6.32;;
84084;SDS011;74175;41.730;44.734;2023-12-20T10:14:05;13.57;;;6.80;;
84084;SDS011;74175;41.730;44.734;2023-12-20T10:16:32;15.07;;;7.38;;
84084;SDS011;74175;41.730;44.734;2023-12-20T10:18:59;10.10;;;5.50;;
84084;SDS011;74175;41.730;44.734;2023-12-20T10:21:26;10.70;;;6.00;;
84084;SDS011;74175;41.730;44.734;2023-12-20T10:23:56;11.05;;;6.22;;
84084;SDS011;74175;41.730;44.734;2023-12-20T10:26:24;12.73;;;6.50;;
84084;SDS011;74175;41.730;44.734;2023-12-20T10:28:53;13.68;;;6.22;;
84084;SDS011;74175;41.730;44.734;2023-12-20T10:34:04;13.88;;;7.20;;
84084;SDS011;74175;41.730;44.734;2023-12-20T10:36:31;14.00;;;7.80;;
84084;SDS011;74175;41.730;44.734;2023-12-20T10:38:58;13.32;;;6.75;;
84084;SDS011;74175;41.730;44.734;2023-12-20T10:41:29;10.80;;;5.13;;
84084;SDS011;74175;41.730;44.734;2023-12-20T10:44:02;11.40;;;6.03;;
84084;SDS011;74175;41.730;44.734;2023-12-20T10:46:30;14.73;;;6.80;;
84084;SDS011;74175;41.730;44.734;2023-12-20T10:49:02;14.60;;;7.20;;
84084;SDS011;74175;41.730;44.734;2023-12-20T10:51:28;17.23;;;7.97;;
84084;SDS011;74175;41.730;44.734;2023-12-20T10:53:55;14.43;;;6.22;;
84084;SDS011;74175;41.730;44.734;2023-12-20T10:56:22;13.60;;;5.47;;
84084;SDS011;74175;41.730;44.734;2023-12-20T10:58:49;14.35;;;6.63;;
84084;SDS011;74175;41.730;44.734;2023-12-20T11:01:16;10.63;;;5.75;;
84084;SDS011;74175;41.730;44.734;2023-12-20T11:03:50;13.27;;;7.07;;
84084;SDS011;74175;41.730;44.734;2023-12-20T11:09:13;11.80;;;6.18;;
84084;SDS011;74175;41.730;44.734;2023-12-20T11:11:44;11.52;;;5.97;;
84084;SDS011;74175;41.730;44.734;2023-12-20T11:14:20;9.50;;;5.23;;
84084;SDS011;74175;41.730;44.734;2023-12-20T11:16:50;11.52;;;5.78;;
84084;SDS011;74175;41.730;44.734;2023-12-20T11:19:18;11.60;;;5.53;;
84084;SDS011;74175;41.730;44.734;2023-12-20T11:21:45;12.18;;;5.80;;
84084;SDS011;74175;41.730;44.734;2023-12-20T11:24:12;12.25;;;5.93;;
84084;SDS011;74175;41.730;44.734;2023-12-20T11:26:38;10.82;;;4.90;;
84084;SDS011;74175;41.730;44.734;2023-12-20T11:32:47;12.77;;;5.40;;
84084;SDS011;74175;41.730;44.734;2023-12-20T11:34:51;12.27;;;5.75;;
84084;SDS011;74175;41.730;44.734;2023-12-20T11:37:20;13.80;;;5.70;;
84084;SDS011;74175;41.730;44.734;2023-12-20T11:39:56;12.15;;;5.20;;
84084;SDS011;74175;41.730;44.734;2023-12-20T11:42:25;12.00;;;5.38;;
84084;SDS011;74175;41.730;44.734;2023-12-20T11:44:52;14.48;;;6.15;;
84084;SDS011;74175;41.730;44.734;2023-12-20T11:47:19;12.33;;;5.77;;
84084;SDS011;74175;41.730;44.734;2023-12-20T11:49:48;12.18;;;5.32;;
84084;SDS011;74175;41.730;44.734;2023-12-20T11:52:15;12.05;;;5.63;;
84084;SDS011;74175;41.730;44.734;2023-12-20T11:54:42;12.00;;;5.40;;
84084;SDS011;74175;41.730;44.734;2023-12-20T11:57:08;9.95;;;4.50;;
84084;SDS011;74175;41.730;44.734;2023-12-20T11:59:36;9.38;;;3.80;;
84084;SDS011;74175;41.730;44.734;2023-12-20T12:02:02;13.02;;;4.82;;
84084;SDS011;74175;41.730;44.734;2023-12-20T12:04:28;9.97;;;4.00;;
84084;SDS011;74175;41.730;44.734;2023-12-20T12:06:56;12.40;;;5.00;;
84084;SDS011;74175;41.730;44.734;2023-12-20T12:09:22;13.70;;;5.60;;
84084;SDS011;74175;41.730;44.734;2023-12-20T12:11:49;13.55;;;5.20;;
84084;SDS011;74175;41.730;44.734;2023-12-20T12:14:15;12.40;;;5.20;;
84084;SDS011;74175;41.730;44.734;2023-12-20T12:16:41;12.00;;;5.25;;
84084;SDS011;74175;41.730;44.734;2023-12-20T12:19:23;9.40;;;4.20;;
84084;SDS011;74175;41.730;44.734;2023-12-20T12:21:50;11.20;;;4.60;;
84084;SDS011;74175;41.730;44.734;2023-12-20T12:24:21;12.95;;;4.05;;
84084;SDS011;74175;41.730;44.734;2023-12-20T12:26:51;10.23;;;4.32;;
84084;SDS011;74175;41.730;44.734;2023-12-20T12:29:18;9.60;;;4.03;;
84084;SDS011;74175;41.730;44.734;2023-12-20T12:31:44;12.60;;;4.07;;
84084;SDS011;74175;41.730;44.734;2023-12-20T12:34:10;11.20;;;4.10;;
84084;SDS011;74175;41.730;44.734;2023-12-20T12:36:37;10.45;;;4.40;;
84084;SDS011;74175;41.730;44.734;2023-12-20T12:39:03;9.33;;;3.53;;
84084;SDS011;74175;41.730;44.734;2023-12-20T12:41:30;12.63;;;4.80;;
84084;SDS011;74175;41.730;44.734;2023-12-20T12:43:56;14.88;;;5.72;;
84084;SDS011;74175;41.730;44.734;2023-12-20T12:46:22;11.88;;;4.80;;
84084;SDS011;74175;41.730;44.734;2023-12-20T12:48:50;13.40;;;4.97;;
84084;SDS011;74175;41.730;44.734;2023-12-20T12:51:16;13.07;;;5.00;;
84084;SDS011;74175;41.730;44.734;2023-12-20T12:53:42;13.77;;;5.70;;
84084;SDS011;74175;41.730;44.734;2023-12-20T12:56:09;12.43;;;4.73;;
84084;SDS011;74175;41.730;44.734;2023-12-20T12:58:35;11.07;;;3.93;;
84084;SDS011;74175;41.730;44.734;2023-12-20T13:01:01;15.43;;;5.30;;
84084;SDS011;74175;41.730;44.734;2023-12-20T13:03:28;11.67;;;4.90;;
84084;SDS011;74175;41.730;44.734;2023-12-20T13:05:55;12.63;;;4.63;;
84084;SDS011;74175;41.730;44.734;2023-12-20T13:08:22;11.13;;;4.72;;
84084;SDS011;74175;41.730;44.734;2023-12-20T13:10:48;12.15;;;5.15;;
84084;SDS011;74175;41.730;44.734;2023-12-20T13:13:15;12.50;;;5.10;;
84084;SDS011;74175;41.730;44.734;2023-12-20T13:15:40;10.47;;;4.20;;
84084;SDS011;74175;41.730;44.734;2023-12-20T13:18:07;11.50;;;4.67;;
84084;SDS011;74175;41.730;44.734;2023-12-20T13:20:33;12.50;;;5.35;;
84084;SDS011;74175;41.730;44.734;2023-12-20T13:22:59;10.23;;;4.72;;
84084;SDS011;74175;41.730;44.734;2023-12-20T13:25:26;13.05;;;5.13;;
84084;SDS011;74175;41.730;44.734;2023-12-20T13:27:53;9.02;;;3.88;;
84084;SDS011;74175;41.730;44.734;2023-12-20T13:30:19;10.98;;;3.95;;
84084;SDS011;74175;41.730;44.734;2023-12-20T13:32:45;15.27;;;5.30;;
84084;SDS011;74175;41.730;44.734;2023-12-20T13:35:11;15.35;;;5.70;;
84084;SDS011;74175;41.730;44.734;2023-12-20T13:37:38;14.18;;;5.85;;
84084;SDS011;74175;41.730;44.734;2023-12-20T13:40:04;15.13;;;6.35;;
84084;SDS011;74175;41.730;44.734;2023-12-20T13:42:32;18.35;;;6.30;;
84084;SDS011;74175;41.730;44.734;2023-12-20T13:44:59;16.08;;;6.03;;
84084;SDS011;74175;41.730;44.734;2023-12-20T13:47:25;21.47;;;6.80;;
84084;SDS011;74175;41.730;44.734;2023-12-20T13:49:52;20.80;;;6.87;;
84084;SDS011;74175;41.730;44.734;2023-12-20T13:52:18;21.35;;;8.35;;
84084;SDS011;74175;41.730;44.734;2023-12-20T13:54:44;18.70;;;7.30;;
84084;SDS011;74175;41.730;44.734;2023-12-20T13:57:10;20.33;;;8.27;;
84084;SDS011;74175;41.730;44.734;2023-12-20T13:59:36;17.85;;;7.38;;
84084;SDS011;74175;41.730;44.734;2023-12-20T14:02:02;18.02;;;7.22;;
84084;SDS011;74175;41.730;44.734;2023-12-20T14:04:29;19.43;;;7.97;;
84084;SDS011;74175;41.730;44.734;2023-12-20T14:06:58;17.42;;;7.80;;
84084;SDS011;74175;41.730;44.734;2023-12-20T14:09:24;17.27;;;7.43;;
84084;SDS011;74175;41.730;44.734;2023-12-20T14:11:50;16.70;;;7.30;;
84084;SDS011;74175;41.730;44.734;2023-12-20T14:14:22;15.70;;;6.93;;
84084;SDS011;74175;41.730;44.734;2023-12-20T14:16:52;17.13;;;7.35;;
84084;SDS011;74175;41.730;44.734;2023-12-20T14:19:25;17.27;;;7.60;;
84084;SDS011;74175;41.730;44.734;2023-12-20T14:21:57;17.90;;;6.75;;
84084;SDS011;74175;41.730;44.734;2023-12-20T14:24:30;17.42;;;7.85;;
84084;SDS011;74175;41.730;44.734;2023-12-20T14:26:56;17.20;;;7.35;;
84084;SDS011;74175;41.730;44.734;2023-12-20T14:29:24;19.98;;;8.35;;
84084;SDS011;74175;41.730;44.734;2023-12-20T14:31:50;22.67;;;9.55;;
84084;SDS011;74175;41.730;44.734;2023-12-20T14:34:16;20.48;;;9.57;;
84084;SDS011;74175;41.730;44.734;2023-12-20T14:36:46;20.63;;;8.37;;
84084;SDS011;74175;41.730;44.734;2023-12-20T14:39:12;18.00;;;7.88;;
84084;SDS011;74175;41.730;44.734;2023-12-20T14:41:43;20.10;;;8.55;;
84084;SDS011;74175;41.730;44.734;2023-12-20T14:44:10;19.70;;;7.90;;